createdAt,value
2018-12-23T00:01:22.485Z,101561.09
2018-12-23T00:03:51.397Z,101557.55
2018-12-23T00:06:20.316Z,101550.95
2018-12-23T00:08:49.199Z,101555.90
2018-12-23T00:11:18.099Z,101553.02
2018-12-23T00:13:47.029Z,101544.73
2018-12-23T00:16:15.907Z,101551.39
2018-12-23T00:18:44.825Z,101564.91
2018-12-23T00:21:13.721Z,101557.06
2018-12-23T00:23:42.613Z,101560.59
2018-12-23T00:26:11.515Z,101560.73
2018-12-23T00:28:40.419Z,101558.96
2018-12-23T00:31:09.308Z,101559.45
2018-12-23T00:33:38.248Z,101558.47
2018-12-23T00:36:07.137Z,101562.09
2018-12-23T00:38:36.010Z,101554.15
2018-12-23T00:41:04.906Z,101551.28
2018-12-23T00:43:33.875Z,101560.42
2018-12-23T00:46:02.692Z,101547.28
2018-12-23T00:48:31.614Z,101549.12
2018-12-23T00:51:00.522Z,101548.63
2018-12-23T00:53:29.451Z,101553.47
2018-12-23T00:55:58.336Z,101546.41
2018-12-23T00:58:27.214Z,101547.33
2018-12-23T01:00:56.141Z,101544.58
2018-12-23T01:03:25.023Z,101551.28
2018-12-23T01:05:53.941Z,101558.53
2018-12-23T01:08:22.825Z,101556.00
2018-12-23T01:10:51.692Z,101563.23
2018-12-23T01:13:20.598Z,101561.48
2018-12-23T01:15:49.480Z,101560.84
2018-12-23T01:18:18.439Z,101570.31
2018-12-23T01:20:47.293Z,101569.34
2018-12-23T01:23:16.166Z,101573.64
2018-12-23T01:25:45.091Z,101574.12
2018-12-23T01:28:14.100Z,101578.69
2018-12-23T01:30:42.891Z,101581.39
2018-12-23T01:33:11.803Z,101586.05
2018-12-23T01:35:40.672Z,101587.64
2018-12-23T01:38:09.586Z,101590.28
2018-12-23T01:40:38.503Z,101592.59
2018-12-23T01:43:07.470Z,101590.08
2018-12-23T01:45:36.419Z,101595.28
2018-12-23T01:48:05.470Z,101592.03
2018-12-23T01:50:34.240Z,101600.48
2018-12-23T01:53:03.161Z,101594.91
2018-12-23T01:55:32.067Z,101596.72
2018-12-23T01:58:00.994Z,101600.56
2018-12-23T02:00:29.873Z,101599.80
2018-12-23T02:02:58.766Z,101610.40
2018-12-23T02:05:27.676Z,101599.80
2018-12-23T02:07:56.572Z,101600.24
2018-12-23T02:10:25.490Z,101602.83
2018-12-23T02:12:54.438Z,101594.93
2018-12-23T02:15:23.285Z,101581.41
2018-12-23T02:17:52.153Z,101587.11
2018-12-23T02:20:21.065Z,101589.11
2018-12-23T02:22:49.956Z,101600.16
2018-12-23T02:25:18.890Z,101594.93
2018-12-23T02:27:47.786Z,101595.15
2018-12-23T02:30:16.687Z,101590.22
2018-12-23T02:32:45.585Z,101598.32
2018-12-23T02:35:14.487Z,101587.86
2018-12-23T02:37:43.405Z,101592.29
2018-12-23T02:40:12.271Z,101598.42
2018-12-23T02:42:41.255Z,101587.52
2018-12-23T02:45:10.074Z,101579.70
2018-12-23T02:47:39.022Z,101584.09
2018-12-23T02:50:07.966Z,101582.84
2018-12-23T02:52:36.874Z,101592.48
2018-12-23T02:55:05.805Z,101597.51
2018-12-23T02:57:34.720Z,101596.10
2018-12-23T03:00:03.627Z,101592.92
2018-12-23T03:02:32.511Z,101594.23
2018-12-23T03:05:01.429Z,101594.45
2018-12-23T03:07:30.365Z,101599.08
2018-12-23T03:09:59.234Z,101599.20
2018-12-23T03:12:28.150Z,101600.80
2018-12-23T03:14:57.048Z,101595.64
2018-12-23T03:17:25.962Z,101607.79
2018-12-23T03:19:54.892Z,101608.45
2018-12-23T03:22:23.800Z,101610.97
2018-12-23T03:24:52.689Z,101609.09
2018-12-23T03:27:21.603Z,101607.95
2018-12-23T03:29:50.521Z,101601.46
2018-12-23T03:32:19.382Z,101611.11
2018-12-23T03:34:48.305Z,101608.97
2018-12-23T03:37:17.164Z,101600.53
2018-12-23T03:39:46.075Z,101601.50
2018-12-23T03:42:14.940Z,101597.84
2018-12-23T03:44:43.878Z,101587.62
2018-12-23T03:47:12.810Z,101579.66
2018-12-23T03:49:41.685Z,101578.73
2018-12-23T03:52:10.591Z,101578.80
2018-12-23T03:54:39.482Z,101579.22
2018-12-23T03:57:08.400Z,101581.60
2018-12-23T03:59:37.288Z,101579.91
2018-12-23T04:02:06.183Z,101570.31
2018-12-23T04:04:35.065Z,101578.42
2018-12-23T04:07:03.997Z,101574.92
2018-12-23T04:09:32.902Z,101571.05
2018-12-23T04:12:01.787Z,101572.61
2018-12-23T04:14:30.669Z,101576.83
2018-12-23T04:16:59.579Z,101575.48
2018-12-23T04:19:28.440Z,101573.98
2018-12-23T04:21:57.347Z,101565.47
2018-12-23T04:24:26.213Z,101564.22
2018-12-23T04:26:55.102Z,101572.22
2018-12-23T04:29:24.019Z,101567.30
2018-12-23T04:31:52.957Z,101562.59
2018-12-23T04:34:21.808Z,101558.99
2018-12-23T04:36:50.734Z,101552.55
2018-12-23T04:39:19.850Z,101554.73
2018-12-23T04:41:48.739Z,101552.80
2018-12-23T04:44:17.655Z,101547.56
2018-12-23T04:46:46.545Z,101545.59
2018-12-23T04:49:15.458Z,101551.54
2018-12-23T04:51:44.345Z,101546.07
2018-12-23T04:54:13.278Z,101546.42
2018-12-23T04:56:42.200Z,101543.47
2018-12-23T04:59:11.066Z,101533.64
2018-12-23T05:01:40.007Z,101531.56
2018-12-23T05:04:08.953Z,101537.77
2018-12-23T05:06:43.274Z,101536.23
2018-12-23T05:09:07.052Z,101539.28
2018-12-23T05:11:35.937Z,101547.11
2018-12-23T05:14:04.861Z,101549.36
2018-12-23T05:16:33.759Z,101548.78
2018-12-23T05:19:02.660Z,101547.67
2018-12-23T05:21:31.557Z,101540.64
2018-12-23T05:24:00.431Z,101545.55
2018-12-23T05:26:29.330Z,101550.58
2018-12-23T05:28:58.221Z,101545.34
2018-12-23T05:31:27.129Z,101535.55
2018-12-23T05:33:56.003Z,101531.98
2018-12-23T05:36:24.940Z,101535.41
2018-12-23T05:38:53.843Z,101539.81
2018-12-23T05:41:22.787Z,101543.65
2018-12-23T05:43:51.673Z,101546.04
2018-12-23T05:46:20.552Z,101542.99
2018-12-23T05:48:49.432Z,101536.09
2018-12-23T05:51:18.342Z,101542.95
2018-12-23T05:53:47.229Z,101542.58
2018-12-23T05:56:16.148Z,101540.81
2018-12-23T05:58:45.028Z,101537.28
2018-12-23T06:01:13.952Z,101541.22
2018-12-23T06:03:42.860Z,101545.13
2018-12-23T06:06:11.738Z,101543.37
2018-12-23T06:08:40.644Z,101545.27
2018-12-23T06:11:09.526Z,101550.98
2018-12-23T06:13:38.425Z,101553.41
2018-12-23T06:16:07.333Z,101551.16
2018-12-23T06:18:36.309Z,101558.98
2018-12-23T06:21:05.131Z,101552.52
2018-12-23T06:23:34.047Z,101549.45
2018-12-23T06:26:02.974Z,101549.56
2018-12-23T06:28:31.864Z,101549.81
2018-12-23T06:31:00.769Z,101553.91
2018-12-23T06:33:29.677Z,101558.89
2018-12-23T06:35:58.580Z,101554.08
2018-12-23T06:38:27.479Z,101558.09
2018-12-23T06:40:56.352Z,101546.55
2018-12-23T06:43:25.252Z,101546.17
2018-12-23T06:45:54.148Z,101547.63
2018-12-23T06:48:23.015Z,101547.42
2018-12-23T06:50:51.929Z,101546.23
2018-12-23T06:53:20.874Z,101537.20
2018-12-23T06:55:49.740Z,101546.07
2018-12-23T06:58:18.634Z,101543.86
2018-12-23T07:00:47.517Z,101545.20
2018-12-23T07:03:16.398Z,101536.14
2018-12-23T07:05:45.293Z,101538.22
2018-12-23T07:08:14.199Z,101535.84
2018-12-23T07:10:43.096Z,101534.48
2018-12-23T07:13:11.998Z,101535.05
2018-12-23T07:15:40.892Z,101531.41
2018-12-23T07:18:09.811Z,101532.66
2018-12-23T07:20:38.690Z,101536.05
2018-12-23T07:23:07.608Z,101532.27
2018-12-23T07:25:36.499Z,101532.57
2018-12-23T07:28:05.428Z,101526.06
2018-12-23T07:30:34.352Z,101531.89
2018-12-23T07:33:03.289Z,101532.52
2018-12-23T07:35:32.189Z,101526.00
2018-12-23T07:38:01.127Z,101520.22
2018-12-23T07:40:30.033Z,101513.06
2018-12-23T07:42:58.926Z,101519.33
2018-12-23T07:45:27.847Z,101517.70
2018-12-23T07:47:56.785Z,101523.77
2018-12-23T07:50:25.687Z,101518.42
2018-12-23T07:52:54.622Z,101524.36
2018-12-23T07:55:23.520Z,101520.95
2018-12-23T07:57:52.428Z,101523.73
2018-12-23T08:00:21.332Z,101529.44
2018-12-23T08:02:50.245Z,101522.44
2018-12-23T08:05:19.193Z,101525.87
2018-12-23T08:07:48.053Z,101526.77
2018-12-23T08:10:16.946Z,101528.95
2018-12-23T08:12:45.826Z,101529.77
2018-12-23T08:15:14.729Z,101529.84
2018-12-23T08:17:43.620Z,101524.73
2018-12-23T08:20:12.524Z,101518.73
2018-12-23T08:22:41.417Z,101522.69
2018-12-23T08:25:12.606Z,101534.84
2018-12-23T08:27:41.513Z,101535.95
2018-12-23T08:30:10.513Z,101538.25
2018-12-23T08:32:39.420Z,101533.70
2018-12-23T08:35:08.374Z,101541.23
2018-12-23T08:37:44.420Z,101538.98
2018-12-23T08:40:06.187Z,101546.28
2018-12-23T08:42:35.062Z,101546.55
2018-12-23T08:45:04.109Z,101541.55
2018-12-23T08:47:33.025Z,101536.90
2018-12-23T08:50:01.926Z,101538.28
2018-12-23T08:52:30.884Z,101541.41
2018-12-23T08:54:59.751Z,101546.95
2018-12-23T08:57:28.706Z,101543.44
2018-12-23T08:59:57.558Z,101546.38
2018-12-23T09:02:26.502Z,101539.39
2018-12-23T09:04:55.395Z,101535.84
2018-12-23T09:07:24.280Z,101535.22
2018-12-23T09:09:53.187Z,101525.30
2018-12-23T09:12:22.063Z,101515.86
2018-12-23T09:14:51.013Z,101510.90
2018-12-23T09:17:19.902Z,101523.00
2018-12-23T09:19:48.865Z,101514.11
2018-12-23T09:22:19.705Z,101513.95
2018-12-23T09:24:46.671Z,101504.21
2018-12-23T09:27:15.582Z,101502.52
2018-12-23T09:29:44.534Z,101500.94
2018-12-23T09:32:13.498Z,101497.00
2018-12-23T09:34:42.330Z,101494.94
2018-12-23T09:37:11.230Z,101493.92
2018-12-23T09:39:40.108Z,101501.05
2018-12-23T09:42:09.091Z,101495.64
2018-12-23T09:44:54.924Z,101492.66
2018-12-23T09:47:26.053Z,101499.53
2018-12-23T09:49:58.348Z,101501.55
2018-12-23T09:52:30.974Z,101495.94
2018-12-23T09:55:08.008Z,101492.63
2018-12-23T09:57:40.162Z,101496.85
2018-12-23T10:00:25.549Z,101486.03
2018-12-23T10:02:57.094Z,101485.44
2018-12-23T10:05:26.461Z,101487.39
2018-12-23T10:08:11.811Z,101480.57
2018-12-23T10:10:41.530Z,101478.89
2018-12-23T10:13:10.849Z,101472.61
2018-12-23T10:15:42.881Z,101473.26
2018-12-23T10:18:22.267Z,101467.70
2018-12-23T10:20:51.621Z,101464.17
2018-12-23T10:23:22.577Z,101467.86
2018-12-23T10:25:57.171Z,101462.44
2018-12-23T10:28:27.247Z,101452.87
2018-12-23T10:30:56.563Z,101453.58
2018-12-23T10:33:29.292Z,101441.94
2018-12-23T10:35:58.517Z,101440.05
2018-12-23T10:38:30.771Z,101438.78
2018-12-23T10:41:04.365Z,101439.16
2018-12-23T10:43:33.727Z,101435.81
2018-12-23T10:46:06.444Z,101427.33
2018-12-23T10:48:36.208Z,101428.30
2018-12-23T10:51:13.597Z,101429.48
2018-12-23T10:53:48.739Z,101419.87
2018-12-23T10:56:17.920Z,101415.70
2018-12-23T10:58:47.285Z,101409.68
2018-12-23T11:01:19.670Z,101401.42
2018-12-23T11:03:51.659Z,101391.45
2018-12-23T11:06:23.828Z,101385.81
2018-12-23T11:08:53.681Z,101387.05
2018-12-23T11:11:29.524Z,101387.16
2018-12-23T11:13:59.089Z,101376.94
2018-12-23T11:16:28.548Z,101368.75
2018-12-23T11:19:00.733Z,101362.70
2018-12-23T11:21:30.270Z,101348.03
2018-12-23T11:24:11.210Z,101326.14
2018-12-23T11:26:45.083Z,101328.36
2018-12-23T11:29:12.958Z,101326.75
2018-12-23T11:31:42.330Z,101321.08
2018-12-23T11:34:16.047Z,101317.41
2018-12-23T11:36:47.555Z,101322.20
2018-12-23T11:39:17.183Z,101312.37
2018-12-23T11:41:46.494Z,101309.77
2018-12-23T11:44:15.811Z,101298.94
2018-12-23T11:46:46.918Z,101294.63
2018-12-23T11:49:14.456Z,101287.61
2018-12-23T11:51:43.954Z,101283.33
2018-12-23T11:55:02.144Z,101278.14
2018-12-23T11:57:32.481Z,101276.44
2018-12-23T12:00:04.587Z,101266.59
2018-12-23T12:02:36.010Z,101273.59
2018-12-23T12:05:05.344Z,101275.34
2018-12-23T12:07:37.666Z,101273.87
2018-12-23T12:10:09.660Z,101264.77
2018-12-23T12:12:39.741Z,101260.32
2018-12-23T12:15:09.281Z,101249.89
2018-12-23T12:17:39.092Z,101254.79
2018-12-23T12:20:15.049Z,101253.67
2018-12-23T12:22:44.851Z,101246.69
2018-12-23T12:25:18.700Z,101246.02
2018-12-23T12:27:48.093Z,101244.92
2018-12-23T12:30:17.467Z,101240.25
2018-12-23T12:32:47.323Z,101243.59
2018-12-23T12:35:16.720Z,101232.86
2018-12-23T12:37:48.465Z,101230.66
2018-12-23T12:40:17.849Z,101223.40
2018-12-23T12:42:47.100Z,101222.30
2018-12-23T12:45:19.088Z,101206.16
2018-12-23T12:47:48.758Z,101202.84
2018-12-23T12:50:24.780Z,101202.75
2018-12-23T12:52:52.540Z,101196.86
2018-12-23T12:55:21.233Z,101197.81
2018-12-23T12:57:53.656Z,101182.34
2018-12-23T13:00:22.708Z,101179.77
2018-12-23T13:02:57.360Z,101175.45
2018-12-23T13:05:26.575Z,101184.31
2018-12-23T13:07:56.492Z,101183.05
2018-12-23T13:10:26.037Z,101174.22
2018-12-23T13:12:58.390Z,101163.23
2018-12-23T13:15:28.064Z,101163.59
2018-12-23T13:17:57.711Z,101158.20
2018-12-23T13:20:30.117Z,101160.91
2018-12-23T13:23:04.209Z,101144.84
2018-12-23T13:25:36.210Z,101142.43
2018-12-23T13:28:07.674Z,101131.48
2018-12-23T13:30:37.326Z,101128.52
2018-12-23T13:33:16.850Z,101132.58
2018-12-23T13:35:46.428Z,101135.41
2018-12-23T13:38:15.832Z,101129.91
2018-12-23T13:41:35.211Z,101129.42
2018-12-23T13:44:57.289Z,101116.41
2018-12-23T13:47:57.643Z,101102.14
2018-12-23T13:50:59.234Z,101110.14
2018-12-23T13:53:59.482Z,101108.41
2018-12-23T13:56:55.190Z,101103.58
2018-12-23T14:00:02.321Z,101107.27
2018-12-23T14:03:26.755Z,101099.19
2018-12-23T14:06:26.046Z,101100.30
2018-12-23T14:09:21.265Z,101099.92
2018-12-23T14:11:59.525Z,101091.93
2018-12-23T14:14:28.961Z,101091.44
2018-12-23T14:16:58.384Z,101080.61
2018-12-23T14:19:29.571Z,101085.05
2018-12-23T14:22:03.266Z,101076.06
2018-12-23T14:24:35.904Z,101065.09
2018-12-23T14:27:08.875Z,101057.41
2018-12-23T14:29:39.777Z,101049.66
2018-12-23T14:32:09.361Z,101054.95
2018-12-23T14:34:45.983Z,101050.19
2018-12-23T14:37:15.801Z,101052.28
2018-12-23T14:39:47.461Z,101046.13
2018-12-23T14:42:21.951Z,101046.50
2018-12-23T14:44:58.897Z,101051.17
2018-12-23T14:47:28.167Z,101050.94
2018-12-23T14:50:00.794Z,101049.73
2018-12-23T14:52:30.294Z,101039.41
2018-12-23T14:55:02.594Z,101032.73
2018-12-23T14:57:33.533Z,101018.33
2018-12-23T15:00:04.391Z,101019.44
2018-12-23T15:02:35.737Z,101020.55
2018-12-23T15:05:05.887Z,101010.22
2018-12-23T15:07:38.033Z,101002.83
2018-12-23T15:10:08.878Z,101010.09
2018-12-23T15:12:41.822Z,101000.37
2018-12-23T15:15:14.581Z,100996.69
2018-12-23T15:17:44.153Z,101000.17
2018-12-23T15:20:13.979Z,101001.28
2018-12-23T15:22:46.344Z,101006.44
2018-12-23T15:25:17.880Z,100991.56
2018-12-23T15:27:48.314Z,100982.08
2018-12-23T15:30:19.762Z,100968.36
2018-12-23T15:32:49.245Z,100957.75
2018-12-23T15:35:24.326Z,100951.59
2018-12-23T15:37:58.060Z,100937.02
2018-12-23T15:40:26.932Z,100946.27
2018-12-23T15:42:55.862Z,100954.16
2018-12-23T15:45:24.778Z,100952.64
2018-12-23T15:47:53.660Z,100955.64
2018-12-23T15:50:22.552Z,100958.29
2018-12-23T15:52:51.437Z,100957.69
2018-12-23T15:55:20.326Z,100960.80
2018-12-23T15:57:49.201Z,100962.77
2018-12-23T16:00:18.117Z,100966.23
2018-12-23T16:02:47.033Z,100968.00
2018-12-23T16:05:15.938Z,100961.49
2018-12-23T16:07:44.868Z,100962.00
2018-12-23T16:10:13.758Z,100956.63
2018-12-23T16:12:42.654Z,100949.63
2018-12-23T16:15:11.568Z,100948.94
2018-12-23T16:17:40.510Z,100938.36
2018-12-23T16:20:11.477Z,100926.97
2018-12-23T16:22:40.401Z,100918.48
2018-12-23T16:25:09.335Z,100921.27
2018-12-23T16:27:38.247Z,100919.30
2018-12-23T16:30:09.089Z,100908.03
2018-12-23T16:32:37.959Z,100918.36
2018-12-23T16:35:06.892Z,100915.30
2018-12-23T16:37:35.828Z,100909.03
2018-12-23T16:40:06.894Z,100921.56
2018-12-23T16:42:35.792Z,100905.09
2018-12-23T16:45:04.982Z,100913.37
2018-12-23T16:47:33.914Z,100925.30
2018-12-23T16:50:02.813Z,100911.78
2018-12-23T16:52:31.695Z,100917.84
2018-12-23T16:55:00.631Z,100919.69
2018-12-23T16:57:29.469Z,100923.38
2018-12-23T16:59:58.382Z,100933.21
2018-12-23T17:02:27.284Z,100931.48
2018-12-23T17:04:56.143Z,100928.30
2018-12-23T17:07:25.037Z,100914.41
2018-12-23T17:09:53.903Z,100924.61
2018-12-23T17:12:22.797Z,100917.23
2018-12-23T17:14:51.669Z,100918.55
2018-12-23T17:17:20.573Z,100930.88
2018-12-23T17:19:49.442Z,100931.36
2018-12-23T17:22:18.370Z,100942.55
2018-12-23T17:24:47.247Z,100932.88
2018-12-23T17:27:16.869Z,100942.71
2018-12-23T17:29:45.645Z,100930.00
2018-12-23T17:32:14.568Z,100930.88
2018-12-23T17:34:43.455Z,100935.11
2018-12-23T17:37:12.356Z,100937.92
2018-12-23T17:39:41.259Z,100937.97
2018-12-23T17:42:10.202Z,100938.95
2018-12-23T17:44:39.083Z,100927.03
2018-12-23T17:47:07.983Z,100939.69
2018-12-23T17:49:36.941Z,100946.23
2018-12-23T17:52:05.854Z,100942.06
2018-12-23T17:54:34.725Z,100930.14
2018-12-23T17:57:03.609Z,100918.22
2018-12-23T17:59:32.491Z,100914.28
2018-12-23T18:02:01.423Z,100926.45
2018-12-23T18:04:30.303Z,100926.82
2018-12-23T18:07:03.778Z,100915.88
2018-12-23T18:09:28.079Z,100924.48
2018-12-23T18:11:56.976Z,100926.45
2018-12-23T18:14:25.911Z,100934.23
2018-12-23T18:16:54.718Z,100946.98
2018-12-23T18:19:23.610Z,100950.61
2018-12-23T18:21:52.501Z,100960.22
2018-12-23T18:24:21.363Z,100967.84
2018-12-23T18:26:50.277Z,100967.84
2018-12-23T18:29:19.166Z,100980.13
2018-12-23T18:31:48.066Z,100980.25
2018-12-23T18:34:16.962Z,100975.34
2018-12-23T18:36:45.829Z,100964.77
2018-12-23T18:39:14.737Z,100948.82
2018-12-23T18:41:43.611Z,100951.52
2018-12-23T18:44:12.522Z,100946.76
2018-12-23T18:46:41.393Z,100942.47
2018-12-23T18:49:10.295Z,100938.91
2018-12-23T18:51:39.171Z,100946.04
2018-12-23T18:54:08.086Z,100955.49
2018-12-23T18:56:40.414Z,100946.28
2018-12-23T18:59:09.358Z,100949.98
2018-12-23T19:01:40.677Z,100951.20
2018-12-23T19:04:10.195Z,100962.88
2018-12-23T19:06:39.081Z,100964.59
2018-12-23T19:09:19.305Z,100971.58
2018-12-23T19:12:35.912Z,100976.27
2018-12-23T19:15:29.401Z,100979.56
2018-12-23T19:18:36.185Z,100972.08
2018-12-23T19:21:45.580Z,100986.69
2018-12-23T19:24:27.463Z,100991.97
2018-12-23T19:27:49.104Z,100986.45
2018-12-23T19:30:44.643Z,100997.13
2018-12-23T19:33:44.258Z,101002.41
2018-12-23T19:37:00.726Z,101009.25
2018-12-23T19:40:25.496Z,101018.11
2018-12-23T19:43:21.883Z,100997.74
2018-12-23T19:46:38.521Z,101017.75
2018-12-23T19:49:34.010Z,101028.06
2018-12-23T19:52:21.362Z,101042.78
2018-12-23T19:55:22.734Z,101050.66
2018-12-23T19:58:33.206Z,101049.20
2018-12-23T20:01:49.900Z,101041.43
2018-12-23T20:04:48.398Z,101054.45
2018-12-23T20:07:33.044Z,101060.00
2018-12-23T20:10:46.654Z,101074.59
2018-12-23T20:13:40.121Z,101081.70
2018-12-23T20:16:58.602Z,101095.11
2018-12-23T20:20:00.895Z,101085.91
2018-12-23T20:22:47.731Z,101087.12
2018-12-23T20:25:59.991Z,101091.17
2018-12-23T20:29:12.454Z,101088.84
2018-12-23T20:32:28.438Z,101091.89
2018-12-23T20:35:51.050Z,101107.84
2018-12-23T20:38:45.160Z,101123.30
2018-12-23T20:41:42.882Z,101129.45
2018-12-23T20:44:41.713Z,101123.04
2018-12-23T20:48:03.108Z,101121.20
2018-12-23T20:51:10.913Z,101123.41
2018-12-23T20:54:21.070Z,101144.41
2018-12-23T20:57:43.584Z,101156.19
2018-12-23T21:00:56.348Z,101149.55
2018-12-23T21:03:50.850Z,101157.05
2018-12-23T21:06:48.822Z,101174.56
2018-12-23T21:09:45.764Z,101175.05
2018-12-23T21:12:55.712Z,101174.45
2018-12-23T21:16:25.439Z,101178.39
2018-12-23T21:19:24.539Z,101182.66
2018-12-23T21:22:20.794Z,101205.12
2018-12-23T21:25:42.381Z,101227.69
2018-12-23T21:28:23.986Z,101218.72
2018-12-23T21:31:55.970Z,101233.80
2018-12-23T21:35:12.848Z,101240.10
2018-12-23T21:38:16.674Z,101238.61
2018-12-23T21:41:33.682Z,101242.17
2018-12-23T21:44:19.883Z,101234.60
2018-12-23T21:47:25.243Z,101253.61
2018-12-23T21:50:11.542Z,101255.23
2018-12-23T21:53:28.229Z,101270.27
2018-12-23T21:56:22.810Z,101273.17
2018-12-23T21:59:24.391Z,101264.19
2018-12-23T22:02:43.160Z,101269.11
2018-12-23T22:05:58.744Z,101276.30
2018-12-23T22:09:02.050Z,101288.70
2018-12-23T22:11:52.152Z,101291.88
2018-12-23T22:14:21.018Z,101281.19
2018-12-23T22:16:49.943Z,101286.81
2018-12-23T22:19:18.810Z,101300.52
2018-12-23T22:21:47.790Z,101314.99
2018-12-23T22:24:16.592Z,101326.06
2018-12-23T22:26:45.496Z,101324.58
2018-12-23T22:29:14.402Z,101328.47
2018-12-23T22:31:43.325Z,101316.98
2018-12-23T22:34:12.232Z,101329.98
2018-12-23T22:36:41.138Z,101321.66
2018-12-23T22:39:10.022Z,101338.99
2018-12-23T22:41:41.454Z,101331.17
2018-12-23T22:44:07.849Z,101327.49
2018-12-23T22:46:36.710Z,101338.19
2018-12-23T22:49:05.627Z,101349.36
2018-12-23T22:51:34.562Z,101358.05
2018-12-23T22:54:03.388Z,101360.31
2018-12-23T22:56:32.263Z,101362.20
2018-12-23T22:59:01.195Z,101362.01
2018-12-23T23:01:30.077Z,101354.85
2018-12-23T23:03:59.000Z,101363.22
2018-12-23T23:06:27.935Z,101375.37
2018-12-23T23:08:56.806Z,101373.74
2018-12-23T23:11:27.480Z,101386.44
2018-12-23T23:13:54.563Z,101390.05
2018-12-23T23:16:23.437Z,101391.39
2018-12-23T23:18:52.317Z,101401.08
2018-12-23T23:21:21.202Z,101395.16
2018-12-23T23:23:50.063Z,101405.37
2018-12-23T23:26:18.942Z,101409.20
2018-12-23T23:28:47.834Z,101416.72
2018-12-23T23:31:16.714Z,101413.36
2018-12-23T23:33:46.540Z,101425.84
2018-12-23T23:36:14.501Z,101426.75
2018-12-23T23:38:43.404Z,101435.50
2018-12-23T23:41:12.299Z,101438.93
2018-12-23T23:43:41.187Z,101448.52
2018-12-23T23:46:10.079Z,101440.98
2018-12-23T23:48:38.994Z,101444.74
2018-12-23T23:51:07.938Z,101444.37
2018-12-23T23:53:36.857Z,101453.50
2018-12-23T23:56:05.772Z,101464.34
2018-12-23T23:58:34.675Z,101466.03
